createdAt,value
2023-04-02T00:03:11.581Z,68.11
2023-04-02T00:08:41.287Z,64.23
2023-04-02T00:13:49.145Z,60.74
2023-04-02T00:19:02.969Z,56.53
2023-04-02T00:24:20.554Z,55.58
2023-04-02T00:29:23.704Z,59.60
2023-04-02T00:34:36.641Z,68.32
2023-04-02T00:39:43.335Z,69.06
2023-04-02T00:44:49.559Z,64.97
2023-04-02T00:50:22.318Z,62.69
2023-04-02T00:55:36.356Z,60.98
2023-04-02T01:00:40.813Z,55.68
2023-04-02T01:05:50.587Z,56.63
2023-04-02T01:11:33.651Z,62.07
2023-04-02T01:17:20.860Z,70.32
2023-04-02T01:23:21.749Z,66.84
2023-04-02T01:29:05.684Z,63.63
2023-04-02T01:34:15.597Z,62.23
2023-04-02T01:39:40.769Z,60.76
2023-04-02T01:44:52.583Z,55.26
2023-04-02T01:50:14.904Z,58.59
2023-04-02T01:55:43.028Z,66.76
2023-04-02T02:01:12.912Z,67.34
2023-04-02T02:06:19.110Z,65.43
2023-04-02T02:11:28.668Z,62.85
2023-04-02T02:16:34.081Z,60.60
2023-04-02T02:21:58.574Z,57.70
2023-04-02T02:27:22.969Z,59.08
2023-04-02T02:32:32.851Z,67.70
2023-04-02T02:37:42.608Z,67.65
2023-04-02T02:42:56.904Z,64.72
2023-04-02T02:48:03.732Z,61.86
2023-04-02T02:53:22.879Z,60.95
2023-04-02T02:58:32.052Z,60.53
2023-04-02T03:03:35.871Z,55.90
2023-04-02T03:08:56.017Z,58.52
2023-04-02T03:14:21.771Z,67.53
2023-04-02T03:19:35.968Z,66.88
2023-04-02T03:24:53.193Z,63.53
2023-04-02T03:30:26.937Z,61.73
2023-04-02T03:36:02.686Z,60.32
2023-04-02T03:41:21.299Z,56.19
2023-04-02T03:46:31.581Z,62.09
2023-04-02T03:51:48.350Z,67.13
2023-04-02T03:56:53.909Z,64.17
2023-04-02T04:02:27.090Z,61.14
2023-04-02T04:07:38.046Z,56.15
2023-04-02T04:12:47.510Z,56.78
2023-04-02T04:18:22.005Z,60.86
2023-04-02T04:23:37.397Z,72.79
2023-04-02T04:29:32.214Z,67.97
2023-04-02T04:34:51.702Z,63.12
2023-04-02T04:39:59.318Z,61.61
2023-04-02T04:45:33.899Z,60.36
2023-04-02T04:50:54.469Z,60.14
2023-04-02T04:56:12.485Z,59.93
2023-04-02T05:01:35.459Z,57.36
2023-04-02T05:07:07.588Z,59.92
2023-04-02T05:12:32.007Z,68.61
2023-04-02T05:17:57.181Z,65.92
2023-04-02T05:23:14.159Z,63.30
2023-04-02T05:28:33.946Z,61.92
2023-04-02T05:33:39.063Z,60.12
2023-04-02T05:38:47.799Z,56.24
2023-04-02T05:44:06.333Z,59.75
2023-04-02T05:49:40.849Z,65.18
2023-04-02T05:54:55.215Z,69.87
2023-04-02T06:00:07.548Z,65.91
2023-04-02T06:05:20.421Z,62.93
2023-04-02T06:10:34.130Z,60.89
2023-04-02T06:15:39.006Z,60.02
2023-04-02T06:20:42.183Z,57.50
2023-04-02T06:25:53.347Z,60.81
2023-04-02T06:31:08.080Z,67.38
2023-04-02T06:36:12.685Z,64.78
2023-04-02T06:41:22.967Z,62.19
2023-04-02T06:46:45.851Z,61.07
2023-04-02T06:51:53.428Z,56.93
2023-04-02T06:56:56.917Z,59.50
2023-04-02T07:02:34.126Z,68.51
2023-04-02T07:07:37.391Z,66.69
2023-04-02T07:12:40.602Z,63.20
2023-04-02T07:17:44.133Z,60.86
2023-04-02T07:22:47.219Z,60.10
2023-04-02T07:27:52.391Z,57.66
2023-04-02T07:32:56.000Z,58.06
2023-04-02T07:37:59.203Z,61.10
2023-04-02T07:43:02.613Z,69.55
2023-04-02T07:48:12.470Z,66.97
2023-04-02T07:53:38.084Z,64.04
2023-04-02T07:58:41.145Z,61.45
2023-04-02T08:03:45.109Z,60.34
2023-04-02T08:08:48.578Z,55.67
2023-04-02T08:13:52.486Z,58.00
2023-04-02T08:18:56.005Z,67.23
2023-04-02T08:23:59.313Z,64.64
2023-04-02T08:29:03.046Z,62.52
2023-04-02T08:34:06.295Z,60.43
2023-04-02T08:39:12.028Z,57.57
2023-04-02T08:44:45.219Z,61.66
2023-04-02T08:49:56.724Z,65.31
2023-04-02T08:55:02.891Z,61.53
2023-04-02T09:00:37.956Z,59.16
2023-04-02T09:05:44.261Z,60.34
2023-04-02T09:11:32.910Z,65.47
2023-04-02T09:16:56.396Z,62.37
2023-04-02T09:22:29.627Z,61.17
2023-04-02T09:27:36.807Z,57.20
2023-04-02T09:32:51.737Z,55.52
2023-04-02T09:38:10.259Z,62.22
2023-04-02T09:43:16.489Z,67.03
2023-04-02T09:48:34.296Z,63.03
2023-04-02T09:53:42.620Z,60.39
2023-04-02T09:59:04.569Z,55.07
2023-04-02T10:04:45.021Z,57.00
2023-04-02T10:10:35.199Z,66.32
2023-04-02T10:15:53.324Z,65.75
2023-04-02T10:21:01.523Z,60.95
2023-04-02T10:26:24.327Z,55.44
2023-04-02T10:31:47.707Z,58.11
2023-04-02T10:37:12.002Z,66.71
2023-04-02T10:42:39.275Z,63.20
2023-04-02T10:48:47.415Z,58.25
2023-04-02T10:54:28.238Z,55.67
2023-04-02T10:59:38.881Z,60.38
2023-04-02T11:04:47.153Z,64.30
2023-04-02T11:09:55.832Z,65.51
2023-04-02T11:15:00.881Z,58.22
2023-04-02T11:20:57.358Z,57.38
2023-04-02T11:26:33.896Z,62.34
2023-04-02T11:31:37.168Z,56.95
2023-04-02T11:36:55.102Z,58.68
2023-04-02T11:42:03.031Z,64.41
2023-04-02T11:47:24.614Z,56.17
2023-04-02T11:52:45.692Z,55.25
2023-04-02T11:58:08.565Z,60.09
2023-04-02T12:03:49.564Z,60.52
2023-04-02T12:09:16.929Z,64.15
2023-04-02T12:14:38.280Z,57.77
2023-04-02T12:19:46.340Z,58.19
2023-04-02T12:24:50.927Z,59.03
2023-04-02T12:30:13.782Z,60.15
2023-04-02T12:35:36.662Z,60.34
2023-04-02T12:40:39.876Z,60.83
2023-04-02T12:45:43.700Z,61.03
2023-04-02T12:50:48.313Z,60.28
2023-04-02T12:55:53.819Z,60.74
2023-04-02T13:01:13.122Z,60.13
2023-04-02T13:06:27.234Z,58.30
2023-04-02T13:11:41.998Z,58.82
2023-04-02T13:16:45.347Z,58.54
2023-04-02T13:21:49.168Z,58.90
2023-04-02T13:26:57.713Z,57.50
2023-04-02T13:32:07.965Z,58.45
2023-04-02T13:37:13.428Z,58.66
2023-04-02T13:42:18.590Z,58.37
2023-04-02T13:47:22.010Z,58.08
2023-04-02T13:52:25.239Z,58.12
2023-04-02T13:57:28.550Z,57.59
2023-04-02T14:02:33.891Z,57.39
2023-04-02T14:08:11.404Z,57.08
2023-04-02T14:13:28.949Z,55.44
2023-04-02T14:19:06.578Z,55.44
2023-04-02T14:24:18.916Z,55.33
2023-04-02T14:29:44.311Z,55.32
2023-04-02T14:35:28.312Z,54.41
2023-04-02T14:41:04.763Z,54.42
2023-04-02T14:46:12.607Z,54.62
2023-04-02T14:51:55.115Z,53.23
2023-04-02T14:57:28.152Z,53.37
2023-04-02T15:02:57.529Z,52.47
2023-04-02T15:08:27.472Z,52.37
2023-04-02T15:13:43.492Z,51.12
2023-04-02T15:18:52.639Z,50.85
2023-04-02T15:24:25.232Z,50.46
2023-04-02T15:30:02.346Z,51.22
2023-04-02T15:35:45.801Z,50.39
2023-04-02T15:41:00.623Z,49.40
2023-04-02T15:46:42.494Z,50.55
2023-04-02T15:51:55.723Z,48.30
2023-04-02T15:57:11.303Z,48.10
2023-04-02T16:02:29.966Z,48.07
2023-04-02T16:07:55.023Z,47.55
2023-04-02T16:12:58.157Z,48.73
2023-04-02T16:18:39.225Z,48.14
2023-04-02T16:23:43.567Z,48.94
2023-04-02T16:29:09.046Z,47.16
2023-04-02T16:34:26.229Z,45.39
2023-04-02T16:40:07.240Z,43.94
2023-04-02T16:45:42.180Z,42.75
2023-04-02T16:51:01.570Z,41.87
2023-04-02T16:56:42.260Z,42.33
2023-04-02T17:02:50.222Z,41.99
2023-04-02T17:08:30.349Z,42.61
2023-04-02T17:13:41.448Z,42.45
2023-04-02T17:18:49.550Z,43.07
2023-04-02T17:24:02.490Z,44.13
2023-04-02T17:29:21.798Z,44.80
2023-04-02T17:34:26.017Z,46.19
2023-04-02T17:39:43.458Z,47.95
2023-04-02T17:44:57.373Z,49.69
2023-04-02T17:50:12.626Z,50.60
2023-04-02T17:55:46.447Z,51.61
2023-04-02T18:01:27.087Z,52.16
2023-04-02T18:07:07.322Z,52.42
2023-04-02T18:12:27.306Z,52.58
2023-04-02T18:17:53.651Z,53.39
2023-04-02T18:23:19.958Z,54.21
2023-04-02T18:29:04.093Z,54.94
2023-04-02T18:34:19.888Z,55.64
2023-04-02T18:39:46.022Z,55.67
2023-04-02T18:45:48.144Z,56.25
2023-04-02T18:50:54.109Z,56.74
2023-04-02T18:56:08.186Z,57.16
2023-04-02T19:01:20.025Z,57.31
2023-04-02T19:06:35.867Z,57.89
2023-04-02T19:11:39.121Z,58.63
2023-04-02T19:17:19.458Z,58.77
2023-04-02T19:22:43.364Z,59.23
2023-04-02T19:28:26.579Z,59.68
2023-04-02T19:34:20.093Z,60.13
2023-04-02T19:39:48.691Z,60.73
2023-04-02T19:44:54.977Z,61.02
2023-04-02T19:49:58.417Z,61.55
2023-04-02T19:55:01.592Z,61.98
2023-04-02T20:00:06.737Z,64.18
2023-04-02T20:05:10.822Z,62.86
2023-04-02T20:10:14.290Z,52.83
2023-04-02T20:15:17.524Z,53.10
2023-04-02T20:20:20.924Z,55.59
2023-04-02T20:25:24.155Z,58.31
2023-04-02T20:30:27.453Z,59.30
2023-04-02T20:35:34.699Z,61.43
2023-04-02T20:40:43.827Z,65.00
2023-04-02T20:45:58.152Z,64.57
2023-04-02T20:51:05.170Z,54.88
2023-04-02T20:56:17.063Z,53.83
2023-04-02T21:01:26.391Z,56.37
2023-04-02T21:06:34.130Z,58.18
2023-04-02T21:11:37.560Z,60.03
2023-04-02T21:16:42.101Z,60.89
2023-04-02T21:21:45.195Z,62.04
2023-04-02T21:26:48.307Z,68.31
2023-04-02T21:31:52.743Z,64.75
2023-04-02T21:36:56.804Z,54.32
2023-04-02T21:42:00.288Z,52.47
2023-04-02T21:47:03.706Z,55.30
2023-04-02T21:52:07.004Z,57.69
2023-04-02T21:57:10.220Z,59.15
2023-04-02T22:02:13.536Z,65.56
2023-04-02T22:07:16.644Z,65.19
2023-04-02T22:12:19.739Z,56.17
2023-04-02T22:17:22.877Z,53.82
2023-04-02T22:22:26.100Z,56.15
2023-04-02T22:27:29.766Z,58.31
2023-04-02T22:32:32.899Z,59.80
2023-04-02T22:37:36.291Z,60.83
2023-04-02T22:42:39.420Z,66.70
2023-04-02T22:47:42.588Z,61.70
2023-04-02T22:52:46.660Z,54.42
2023-04-02T22:57:49.730Z,54.55
2023-04-02T23:02:52.845Z,56.47
2023-04-02T23:07:56.461Z,58.63
2023-04-02T23:12:59.468Z,60.60
2023-04-02T23:18:02.629Z,60.81
2023-04-02T23:23:05.681Z,61.06
2023-04-02T23:28:12.549Z,62.09
2023-04-02T23:33:15.681Z,67.87
2023-04-02T23:38:18.788Z,63.67
2023-04-02T23:43:21.889Z,55.13
2023-04-02T23:48:24.907Z,51.46
2023-04-02T23:53:28.109Z,54.03
2023-04-02T23:58:31.516Z,56.30
